Kansas City, Kansas
Current Conditions -  °F | °C
As of 9:54 PM on Thursday 27 Nov 2014 (Local Time) from KMKC Reporting Station
Clear Clear  
Wind Chill: 26°   Ceiling: Unl
Heat Index: 33°   Visibility: 9mi
Dew Point: 23°   Wind: 8mph
Humidity: 66%   Direction: 110°ESE
Pressure: 30.31"   Gusts: NA
Location:  39.11°N, 94.63°W
Report Text: KMKC 280354Z 11007KT 9SM CLR 01/M05 A3031 RMK AO2 SLP271 T00061050
Loading
Personal Weather Stations






























Interactive Weather Map New forecast layout! Learn more

10-Day Weather Forecast

Advertisements
Track Severe Weather on mobile